sensor_id;sensor_type;location;lat;lon;timestamp;P1;durP1;ratioP1;P2;durP2;ratioP2
51326;SDS011;37412;52.836;6.362;2023-09-18T00:00:21;21.95;;;19.65;;
51326;SDS011;37412;52.836;6.362;2023-09-18T00:03:07;24.17;;;21.77;;
51326;SDS011;37412;52.836;6.362;2023-09-18T00:05:53;24.10;;;21.63;;
51326;SDS011;37412;52.836;6.362;2023-09-18T00:08:39;24.30;;;21.90;;
51326;SDS011;37412;52.836;6.362;2023-09-18T00:11:25;24.90;;;22.27;;
51326;SDS011;37412;52.836;6.362;2023-09-18T00:14:12;25.35;;;22.85;;
51326;SDS011;37412;52.836;6.362;2023-09-18T00:16:58;24.35;;;21.95;;
51326;SDS011;37412;52.836;6.362;2023-09-18T00:19:44;26.25;;;23.55;;
51326;SDS011;37412;52.836;6.362;2023-09-18T00:22:31;26.13;;;23.52;;
51326;SDS011;37412;52.836;6.362;2023-09-18T00:25:17;27.23;;;24.43;;
51326;SDS011;37412;52.836;6.362;2023-09-18T00:28:03;27.15;;;24.25;;
51326;SDS011;37412;52.836;6.362;2023-09-18T00:30:49;27.27;;;24.55;;
51326;SDS011;37412;52.836;6.362;2023-09-18T00:33:35;28.42;;;25.52;;
51326;SDS011;37412;52.836;6.362;2023-09-18T00:36:21;27.23;;;24.40;;
51326;SDS011;37412;52.836;6.362;2023-09-18T00:39:07;27.17;;;24.38;;
51326;SDS011;37412;52.836;6.362;2023-09-18T00:41:53;27.88;;;24.92;;
51326;SDS011;37412;52.836;6.362;2023-09-18T00:44:40;26.70;;;24.10;;
51326;SDS011;37412;52.836;6.362;2023-09-18T00:47:28;27.20;;;24.35;;
51326;SDS011;37412;52.836;6.362;2023-09-18T00:50:14;27.58;;;24.70;;
51326;SDS011;37412;52.836;6.362;2023-09-18T00:53:01;24.83;;;22.33;;
51326;SDS011;37412;52.836;6.362;2023-09-18T00:55:47;24.95;;;22.30;;
51326;SDS011;37412;52.836;6.362;2023-09-18T00:58:36;25.88;;;23.30;;
51326;SDS011;37412;52.836;6.362;2023-09-18T01:01:22;26.20;;;23.50;;
51326;SDS011;37412;52.836;6.362;2023-09-18T01:04:08;25.90;;;23.23;;
51326;SDS011;37412;52.836;6.362;2023-09-18T01:06:55;25.83;;;23.13;;
51326;SDS011;37412;52.836;6.362;2023-09-18T01:09:43;25.40;;;22.75;;
51326;SDS011;37412;52.836;6.362;2023-09-18T01:12:40;26.33;;;23.63;;
51326;SDS011;37412;52.836;6.362;2023-09-18T01:15:39;25.80;;;23.30;;
51326;SDS011;37412;52.836;6.362;2023-09-18T01:18:30;24.70;;;22.20;;
51326;SDS011;37412;52.836;6.362;2023-09-18T01:21:16;24.40;;;21.90;;
51326;SDS011;37412;52.836;6.362;2023-09-18T01:24:05;23.95;;;21.55;;
51326;SDS011;37412;52.836;6.362;2023-09-18T01:26:51;23.35;;;20.52;;
51326;SDS011;37412;52.836;6.362;2023-09-18T01:29:37;22.90;;;20.40;;
51326;SDS011;37412;52.836;6.362;2023-09-18T01:32:24;23.57;;;21.07;;
51326;SDS011;37412;52.836;6.362;2023-09-18T01:35:12;25.65;;;22.98;;
51326;SDS011;37412;52.836;6.362;2023-09-18T01:37:59;25.05;;;22.45;;
51326;SDS011;37412;52.836;6.362;2023-09-18T01:40:46;26.08;;;23.35;;
51326;SDS011;37412;52.836;6.362;2023-09-18T01:43:35;26.33;;;23.73;;
51326;SDS011;37412;52.836;6.362;2023-09-18T01:46:21;28.33;;;25.40;;
51326;SDS011;37412;52.836;6.362;2023-09-18T01:49:08;26.52;;;23.73;;
51326;SDS011;37412;52.836;6.362;2023-09-18T01:51:53;26.58;;;23.80;;
51326;SDS011;37412;52.836;6.362;2023-09-18T01:54:39;26.13;;;23.23;;
51326;SDS011;37412;52.836;6.362;2023-09-18T01:57:25;25.58;;;23.08;;
51326;SDS011;37412;52.836;6.362;2023-09-18T02:00:11;23.75;;;21.38;;
51326;SDS011;37412;52.836;6.362;2023-09-18T02:02:59;24.95;;;22.42;;
51326;SDS011;37412;52.836;6.362;2023-09-18T02:05:45;25.95;;;23.35;;
51326;SDS011;37412;52.836;6.362;2023-09-18T02:08:31;25.10;;;22.63;;
51326;SDS011;37412;52.836;6.362;2023-09-18T02:11:16;25.67;;;22.98;;
51326;SDS011;37412;52.836;6.362;2023-09-18T02:14:02;27.33;;;24.50;;
51326;SDS011;37412;52.836;6.362;2023-09-18T02:16:49;25.88;;;23.38;;
51326;SDS011;37412;52.836;6.362;2023-09-18T02:19:36;26.52;;;23.67;;
51326;SDS011;37412;52.836;6.362;2023-09-18T02:22:22;26.40;;;23.80;;
51326;SDS011;37412;52.836;6.362;2023-09-18T02:25:08;26.52;;;23.60;;
51326;SDS011;37412;52.836;6.362;2023-09-18T02:27:54;25.63;;;22.98;;
51326;SDS011;37412;52.836;6.362;2023-09-18T02:30:40;24.93;;;22.50;;
51326;SDS011;37412;52.836;6.362;2023-09-18T02:33:26;25.42;;;22.77;;
51326;SDS011;37412;52.836;6.362;2023-09-18T02:36:12;24.83;;;22.33;;
51326;SDS011;37412;52.836;6.362;2023-09-18T02:38:58;23.37;;;20.87;;
51326;SDS011;37412;52.836;6.362;2023-09-18T02:41:44;23.83;;;21.50;;
51326;SDS011;37412;52.836;6.362;2023-09-18T02:44:30;23.88;;;21.48;;
51326;SDS011;37412;52.836;6.362;2023-09-18T02:47:16;23.27;;;20.83;;
51326;SDS011;37412;52.836;6.362;2023-09-18T02:50:04;22.88;;;20.58;;
51326;SDS011;37412;52.836;6.362;2023-09-18T02:52:50;23.42;;;21.13;;
51326;SDS011;37412;52.836;6.362;2023-09-18T02:55:36;23.97;;;21.53;;
51326;SDS011;37412;52.836;6.362;2023-09-18T02:58:22;23.50;;;21.10;;
51326;SDS011;37412;52.836;6.362;2023-09-18T03:01:11;24.85;;;21.83;;
51326;SDS011;37412;52.836;6.362;2023-09-18T03:03:57;24.10;;;21.73;;
51326;SDS011;37412;52.836;6.362;2023-09-18T03:06:43;24.52;;;21.98;;
51326;SDS011;37412;52.836;6.362;2023-09-18T03:09:29;25.00;;;22.40;;
51326;SDS011;37412;52.836;6.362;2023-09-18T03:12:15;24.40;;;21.83;;
51326;SDS011;37412;52.836;6.362;2023-09-18T03:15:01;24.02;;;21.42;;
51326;SDS011;37412;52.836;6.362;2023-09-18T03:17:47;23.60;;;21.13;;
51326;SDS011;37412;52.836;6.362;2023-09-18T03:20:35;23.80;;;21.30;;
51326;SDS011;37412;52.836;6.362;2023-09-18T03:23:21;22.75;;;20.48;;
51326;SDS011;37412;52.836;6.362;2023-09-18T03:26:07;23.75;;;20.52;;
51326;SDS011;37412;52.836;6.362;2023-09-18T03:28:53;24.63;;;20.65;;
51326;SDS011;37412;52.836;6.362;2023-09-18T03:31:39;22.23;;;19.88;;
51326;SDS011;37412;52.836;6.362;2023-09-18T03:34:25;23.27;;;20.70;;
51326;SDS011;37412;52.836;6.362;2023-09-18T03:37:14;21.65;;;19.30;;
51326;SDS011;37412;52.836;6.362;2023-09-18T03:39:59;22.50;;;19.77;;
51326;SDS011;37412;52.836;6.362;2023-09-18T03:42:47;21.30;;;19.00;;
51326;SDS011;37412;52.836;6.362;2023-09-18T03:45:34;21.00;;;18.80;;
51326;SDS011;37412;52.836;6.362;2023-09-18T03:48:20;19.90;;;17.95;;
51326;SDS011;37412;52.836;6.362;2023-09-18T03:51:06;19.92;;;17.85;;
51326;SDS011;37412;52.836;6.362;2023-09-18T03:53:53;18.98;;;17.02;;
51326;SDS011;37412;52.836;6.362;2023-09-18T03:56:39;19.30;;;17.23;;
51326;SDS011;37412;52.836;6.362;2023-09-18T03:59:26;18.90;;;17.00;;
51326;SDS011;37412;52.836;6.362;2023-09-18T04:02:11;18.75;;;16.73;;
51326;SDS011;37412;52.836;6.362;2023-09-18T04:04:57;21.30;;;17.05;;
51326;SDS011;37412;52.836;6.362;2023-09-18T04:07:43;18.75;;;16.83;;
51326;SDS011;37412;52.836;6.362;2023-09-18T04:10:31;18.25;;;16.42;;
51326;SDS011;37412;52.836;6.362;2023-09-18T04:13:18;18.77;;;16.05;;
51326;SDS011;37412;52.836;6.362;2023-09-18T04:16:04;18.15;;;16.02;;
51326;SDS011;37412;52.836;6.362;2023-09-18T04:18:50;17.83;;;15.83;;
51326;SDS011;37412;52.836;6.362;2023-09-18T04:21:36;18.38;;;16.38;;
51326;SDS011;37412;52.836;6.362;2023-09-18T04:24:22;19.40;;;15.80;;
51326;SDS011;37412;52.836;6.362;2023-09-18T04:27:08;17.52;;;15.30;;
51326;SDS011;37412;52.836;6.362;2023-09-18T04:29:55;16.90;;;15.10;;
51326;SDS011;37412;52.836;6.362;2023-09-18T04:32:41;18.00;;;15.43;;
51326;SDS011;37412;52.836;6.362;2023-09-18T04:35:28;17.60;;;15.05;;
51326;SDS011;37412;52.836;6.362;2023-09-18T04:38:16;15.82;;;14.00;;
51326;SDS011;37412;52.836;6.362;2023-09-18T04:41:04;17.48;;;14.40;;
51326;SDS011;37412;52.836;6.362;2023-09-18T04:43:52;17.15;;;13.90;;
51326;SDS011;37412;52.836;6.362;2023-09-18T04:46:38;15.07;;;13.40;;
51326;SDS011;37412;52.836;6.362;2023-09-18T04:49:24;15.35;;;13.32;;
51326;SDS011;37412;52.836;6.362;2023-09-18T04:52:10;15.23;;;13.52;;
51326;SDS011;37412;52.836;6.362;2023-09-18T04:54:56;16.65;;;14.07;;
51326;SDS011;37412;52.836;6.362;2023-09-18T04:57:42;16.23;;;13.50;;
51326;SDS011;37412;52.836;6.362;2023-09-18T05:00:28;16.40;;;14.02;;
51326;SDS011;37412;52.836;6.362;2023-09-18T05:03:14;17.90;;;13.27;;
51326;SDS011;37412;52.836;6.362;2023-09-18T05:06:00;16.25;;;13.80;;
51326;SDS011;37412;52.836;6.362;2023-09-18T05:08:48;15.30;;;13.70;;
51326;SDS011;37412;52.836;6.362;2023-09-18T05:11:34;17.53;;;13.80;;
51326;SDS011;37412;52.836;6.362;2023-09-18T05:14:20;16.13;;;13.52;;
51326;SDS011;37412;52.836;6.362;2023-09-18T05:17:16;16.17;;;14.23;;
51326;SDS011;37412;52.836;6.362;2023-09-18T05:20:05;16.83;;;14.60;;
51326;SDS011;37412;52.836;6.362;2023-09-18T05:22:52;17.67;;;14.97;;
51326;SDS011;37412;52.836;6.362;2023-09-18T05:25:41;16.50;;;14.50;;
51326;SDS011;37412;52.836;6.362;2023-09-18T05:28:29;17.40;;;14.82;;
51326;SDS011;37412;52.836;6.362;2023-09-18T05:31:15;18.88;;;14.00;;
51326;SDS011;37412;52.836;6.362;2023-09-18T05:34:01;15.98;;;14.27;;
51326;SDS011;37412;52.836;6.362;2023-09-18T05:36:47;16.33;;;14.38;;
51326;SDS011;37412;52.836;6.362;2023-09-18T05:39:33;18.37;;;14.80;;
51326;SDS011;37412;52.836;6.362;2023-09-18T05:42:19;16.73;;;14.70;;
51326;SDS011;37412;52.836;6.362;2023-09-18T05:45:06;16.67;;;13.80;;
51326;SDS011;37412;52.836;6.362;2023-09-18T05:47:52;16.75;;;14.27;;
51326;SDS011;37412;52.836;6.362;2023-09-18T05:50:38;16.08;;;14.10;;
51326;SDS011;37412;52.836;6.362;2023-09-18T05:53:26;15.88;;;14.07;;
51326;SDS011;37412;52.836;6.362;2023-09-18T05:56:12;16.70;;;13.77;;
51326;SDS011;37412;52.836;6.362;2023-09-18T05:58:59;17.55;;;14.15;;
51326;SDS011;37412;52.836;6.362;2023-09-18T06:01:45;17.48;;;13.98;;
51326;SDS011;37412;52.836;6.362;2023-09-18T06:04:31;14.90;;;13.48;;
51326;SDS011;37412;52.836;6.362;2023-09-18T06:07:17;16.23;;;13.23;;
51326;SDS011;37412;52.836;6.362;2023-09-18T06:10:03;17.92;;;13.20;;
51326;SDS011;37412;52.836;6.362;2023-09-18T06:12:49;14.67;;;13.03;;
51326;SDS011;37412;52.836;6.362;2023-09-18T06:15:35;15.90;;;13.50;;
51326;SDS011;37412;52.836;6.362;2023-09-18T06:18:21;14.97;;;13.30;;
51326;SDS011;37412;52.836;6.362;2023-09-18T06:21:07;15.80;;;12.50;;
51326;SDS011;37412;52.836;6.362;2023-09-18T06:23:53;15.18;;;12.75;;
51326;SDS011;37412;52.836;6.362;2023-09-18T06:26:39;14.60;;;13.10;;
51326;SDS011;37412;52.836;6.362;2023-09-18T06:29:25;14.93;;;12.60;;
51326;SDS011;37412;52.836;6.362;2023-09-18T06:32:12;16.50;;;13.35;;
51326;SDS011;37412;52.836;6.362;2023-09-18T06:34:58;16.23;;;14.02;;
51326;SDS011;37412;52.836;6.362;2023-09-18T06:37:44;15.15;;;13.38;;
51326;SDS011;37412;52.836;6.362;2023-09-18T06:40:29;19.20;;;14.80;;
51326;SDS011;37412;52.836;6.362;2023-09-18T06:43:16;17.02;;;15.10;;
51326;SDS011;37412;52.836;6.362;2023-09-18T06:46:02;18.05;;;15.10;;
51326;SDS011;37412;52.836;6.362;2023-09-18T06:48:47;19.42;;;16.27;;
51326;SDS011;37412;52.836;6.362;2023-09-18T06:51:36;21.88;;;16.90;;
51326;SDS011;37412;52.836;6.362;2023-09-18T06:54:22;24.48;;;17.85;;
51326;SDS011;37412;52.836;6.362;2023-09-18T06:57:08;23.35;;;18.10;;
51326;SDS011;37412;52.836;6.362;2023-09-18T06:59:54;23.92;;;19.67;;
51326;SDS011;37412;52.836;6.362;2023-09-18T07:02:40;24.23;;;18.17;;
51326;SDS011;37412;52.836;6.362;2023-09-18T07:05:26;23.70;;;19.25;;
51326;SDS011;37412;52.836;6.362;2023-09-18T07:08:12;24.65;;;19.40;;
51326;SDS011;37412;52.836;6.362;2023-09-18T07:10:58;28.20;;;20.77;;
51326;SDS011;37412;52.836;6.362;2023-09-18T07:13:44;29.55;;;20.90;;
51326;SDS011;37412;52.836;6.362;2023-09-18T07:16:30;28.83;;;20.58;;
51326;SDS011;37412;52.836;6.362;2023-09-18T07:19:16;24.70;;;19.27;;
51326;SDS011;37412;52.836;6.362;2023-09-18T07:22:02;26.17;;;20.63;;
51326;SDS011;37412;52.836;6.362;2023-09-18T07:24:48;26.45;;;20.80;;
51326;SDS011;37412;52.836;6.362;2023-09-18T07:27:34;24.65;;;20.75;;
51326;SDS011;37412;52.836;6.362;2023-09-18T07:30:21;25.63;;;21.38;;
51326;SDS011;37412;52.836;6.362;2023-09-18T07:33:12;26.58;;;21.88;;
51326;SDS011;37412;52.836;6.362;2023-09-18T07:36:03;24.42;;;21.58;;
51326;SDS011;37412;52.836;6.362;2023-09-18T07:38:49;25.17;;;21.33;;
51326;SDS011;37412;52.836;6.362;2023-09-18T07:41:35;23.92;;;21.00;;
51326;SDS011;37412;52.836;6.362;2023-09-18T07:44:21;24.88;;;20.40;;
51326;SDS011;37412;52.836;6.362;2023-09-18T07:47:07;25.83;;;20.50;;
51326;SDS011;37412;52.836;6.362;2023-09-18T07:49:53;21.40;;;18.50;;
51326;SDS011;37412;52.836;6.362;2023-09-18T07:52:40;22.15;;;18.17;;
51326;SDS011;37412;52.836;6.362;2023-09-18T07:55:26;20.53;;;17.40;;
51326;SDS011;37412;52.836;6.362;2023-09-18T07:58:11;21.55;;;17.25;;
51326;SDS011;37412;52.836;6.362;2023-09-18T08:00:59;18.83;;;15.13;;
51326;SDS011;37412;52.836;6.362;2023-09-18T08:03:45;18.70;;;13.93;;
51326;SDS011;37412;52.836;6.362;2023-09-18T08:06:31;18.55;;;15.05;;
51326;SDS011;37412;52.836;6.362;2023-09-18T08:09:17;16.98;;;14.25;;
51326;SDS011;37412;52.836;6.362;2023-09-18T08:12:03;16.55;;;13.82;;
51326;SDS011;37412;52.836;6.362;2023-09-18T08:14:50;17.70;;;14.07;;
51326;SDS011;37412;52.836;6.362;2023-09-18T08:17:36;17.60;;;13.90;;
51326;SDS011;37412;52.836;6.362;2023-09-18T08:20:22;17.30;;;14.38;;
51326;SDS011;37412;52.836;6.362;2023-09-18T08:23:08;17.90;;;14.63;;
51326;SDS011;37412;52.836;6.362;2023-09-18T08:25:55;18.52;;;14.57;;
51326;SDS011;37412;52.836;6.362;2023-09-18T08:28:42;17.13;;;14.70;;
51326;SDS011;37412;52.836;6.362;2023-09-18T08:31:29;17.85;;;14.65;;
51326;SDS011;37412;52.836;6.362;2023-09-18T08:34:17;20.58;;;15.95;;
51326;SDS011;37412;52.836;6.362;2023-09-18T08:37:03;19.23;;;16.00;;
51326;SDS011;37412;52.836;6.362;2023-09-18T08:39:49;19.75;;;15.93;;
51326;SDS011;37412;52.836;6.362;2023-09-18T08:42:35;20.23;;;16.92;;
51326;SDS011;37412;52.836;6.362;2023-09-18T08:45:27;19.17;;;16.40;;
51326;SDS011;37412;52.836;6.362;2023-09-18T08:48:34;18.87;;;16.03;;
51326;SDS011;37412;52.836;6.362;2023-09-18T08:51:21;19.38;;;16.00;;
51326;SDS011;37412;52.836;6.362;2023-09-18T08:54:08;18.83;;;16.13;;
51326;SDS011;37412;52.836;6.362;2023-09-18T08:56:55;19.88;;;16.27;;
51326;SDS011;37412;52.836;6.362;2023-09-18T08:59:41;18.73;;;16.37;;
51326;SDS011;37412;52.836;6.362;2023-09-18T09:02:28;20.90;;;17.03;;
51326;SDS011;37412;52.836;6.362;2023-09-18T09:05:15;21.65;;;17.02;;
51326;SDS011;37412;52.836;6.362;2023-09-18T09:08:01;22.13;;;16.80;;
51326;SDS011;37412;52.836;6.362;2023-09-18T09:10:47;18.77;;;16.50;;
51326;SDS011;37412;52.836;6.362;2023-09-18T09:13:34;18.95;;;16.83;;
51326;SDS011;37412;52.836;6.362;2023-09-18T09:16:19;22.90;;;17.00;;
51326;SDS011;37412;52.836;6.362;2023-09-18T09:19:05;20.75;;;17.50;;
51326;SDS011;37412;52.836;6.362;2023-09-18T09:21:52;21.00;;;17.60;;
51326;SDS011;37412;52.836;6.362;2023-09-18T09:24:40;19.90;;;17.35;;
51326;SDS011;37412;52.836;6.362;2023-09-18T09:27:27;19.88;;;17.45;;
51326;SDS011;37412;52.836;6.362;2023-09-18T09:30:23;19.02;;;17.02;;
51326;SDS011;37412;52.836;6.362;2023-09-18T09:33:11;19.55;;;17.20;;
51326;SDS011;37412;52.836;6.362;2023-09-18T09:35:57;24.70;;;17.00;;
51326;SDS011;37412;52.836;6.362;2023-09-18T09:38:43;18.77;;;16.38;;
51326;SDS011;37412;52.836;6.362;2023-09-18T09:41:30;17.85;;;16.05;;
51326;SDS011;37412;52.836;6.362;2023-09-18T09:44:17;17.95;;;16.05;;
51326;SDS011;37412;52.836;6.362;2023-09-18T09:47:05;17.75;;;15.68;;
51326;SDS011;37412;52.836;6.362;2023-09-18T09:49:51;17.02;;;15.23;;
51326;SDS011;37412;52.836;6.362;2023-09-18T09:52:43;16.65;;;13.57;;
51326;SDS011;37412;52.836;6.362;2023-09-18T09:55:30;14.75;;;13.25;;
51326;SDS011;37412;52.836;6.362;2023-09-18T09:58:19;15.45;;;12.50;;
51326;SDS011;37412;52.836;6.362;2023-09-18T10:01:12;14.27;;;12.77;;
51326;SDS011;37412;52.836;6.362;2023-09-18T10:04:03;13.73;;;12.20;;
51326;SDS011;37412;52.836;6.362;2023-09-18T10:07:05;12.95;;;11.55;;
51326;SDS011;37412;52.836;6.362;2023-09-18T10:09:52;12.40;;;11.10;;
51326;SDS011;37412;52.836;6.362;2023-09-18T10:12:39;12.60;;;11.30;;
51326;SDS011;37412;52.836;6.362;2023-09-18T10:15:25;11.47;;;10.27;;
51326;SDS011;37412;52.836;6.362;2023-09-18T10:18:17;12.75;;;10.18;;
51326;SDS011;37412;52.836;6.362;2023-09-18T10:21:17;10.52;;;9.43;;
51326;SDS011;37412;52.836;6.362;2023-09-18T10:24:19;10.90;;;9.63;;
51326;SDS011;37412;52.836;6.362;2023-09-18T10:27:09;11.87;;;9.67;;
51326;SDS011;37412;52.836;6.362;2023-09-18T10:29:58;10.88;;;9.57;;
51326;SDS011;37412;52.836;6.362;2023-09-18T10:32:50;10.43;;;9.32;;
51326;SDS011;37412;52.836;6.362;2023-09-18T10:35:37;9.98;;;8.65;;
51326;SDS011;37412;52.836;6.362;2023-09-18T10:38:24;9.63;;;8.00;;
51326;SDS011;37412;52.836;6.362;2023-09-18T10:41:11;8.75;;;7.85;;
51326;SDS011;37412;52.836;6.362;2023-09-18T10:43:57;9.20;;;7.90;;
51326;SDS011;37412;52.836;6.362;2023-09-18T10:46:45;8.10;;;6.97;;
51326;SDS011;37412;52.836;6.362;2023-09-18T10:49:32;7.70;;;6.63;;
51326;SDS011;37412;52.836;6.362;2023-09-18T10:52:20;8.33;;;6.60;;
51326;SDS011;37412;52.836;6.362;2023-09-18T10:55:06;8.10;;;6.90;;
51326;SDS011;37412;52.836;6.362;2023-09-18T10:57:54;7.55;;;6.68;;
51326;SDS011;37412;52.836;6.362;2023-09-18T11:00:42;8.63;;;6.80;;
51326;SDS011;37412;52.836;6.362;2023-09-18T11:03:28;9.05;;;7.00;;
51326;SDS011;37412;52.836;6.362;2023-09-18T11:06:13;7.95;;;7.00;;
51326;SDS011;37412;52.836;6.362;2023-09-18T11:09:01;8.93;;;6.65;;
51326;SDS011;37412;52.836;6.362;2023-09-18T11:11:52;8.88;;;6.70;;
51326;SDS011;37412;52.836;6.362;2023-09-18T11:17:41;9.40;;;6.30;;
51326;SDS011;37412;52.836;6.362;2023-09-18T11:20:28;9.60;;;5.73;;
51326;SDS011;37412;52.836;6.362;2023-09-18T11:26:02;9.20;;;6.50;;
51326;SDS011;37412;52.836;6.362;2023-09-18T11:28:50;10.75;;;7.05;;
51326;SDS011;37412;52.836;6.362;2023-09-18T11:34:30;10.20;;;8.30;;
51326;SDS011;37412;52.836;6.362;2023-09-18T11:37:20;10.13;;;8.68;;
51326;SDS011;37412;52.836;6.362;2023-09-18T11:40:16;11.02;;;8.65;;
51326;SDS011;37412;52.836;6.362;2023-09-18T11:46:11;9.60;;;7.87;;
51326;SDS011;37412;52.836;6.362;2023-09-18T11:49:03;8.70;;;6.70;;
51326;SDS011;37412;52.836;6.362;2023-09-18T11:51:51;7.47;;;6.35;;
51326;SDS011;37412;52.836;6.362;2023-09-18T11:54:39;9.52;;;6.68;;
51326;SDS011;37412;52.836;6.362;2023-09-18T11:57:25;10.00;;;7.00;;
51326;SDS011;37412;52.836;6.362;2023-09-18T12:00:19;8.43;;;6.57;;
51326;SDS011;37412;52.836;6.362;2023-09-18T12:03:23;7.05;;;6.30;;
51326;SDS011;37412;52.836;6.362;2023-09-18T12:06:12;9.55;;;6.28;;
51326;SDS011;37412;52.836;6.362;2023-09-18T12:08:58;7.97;;;6.10;;
51326;SDS011;37412;52.836;6.362;2023-09-18T12:11:44;6.85;;;5.72;;
51326;SDS011;37412;52.836;6.362;2023-09-18T12:14:31;7.97;;;5.83;;
51326;SDS011;37412;52.836;6.362;2023-09-18T12:17:18;8.70;;;6.20;;
51326;SDS011;37412;52.836;6.362;2023-09-18T12:20:04;8.95;;;6.50;;
51326;SDS011;37412;52.836;6.362;2023-09-18T12:22:51;7.07;;;6.38;;
51326;SDS011;37412;52.836;6.362;2023-09-18T12:25:38;7.55;;;6.05;;
51326;SDS011;37412;52.836;6.362;2023-09-18T12:28:24;7.10;;;5.82;;
51326;SDS011;37412;52.836;6.362;2023-09-18T12:31:14;7.40;;;6.00;;
51326;SDS011;37412;52.836;6.362;2023-09-18T12:34:01;6.50;;;5.90;;
51326;SDS011;37412;52.836;6.362;2023-09-18T12:36:47;6.63;;;6.03;;
51326;SDS011;37412;52.836;6.362;2023-09-18T12:39:33;6.97;;;6.03;;
51326;SDS011;37412;52.836;6.362;2023-09-18T12:42:19;6.47;;;5.80;;
51326;SDS011;37412;52.836;6.362;2023-09-18T12:45:06;5.93;;;5.03;;
51326;SDS011;37412;52.836;6.362;2023-09-18T12:47:56;6.68;;;5.18;;
51326;SDS011;37412;52.836;6.362;2023-09-18T12:50:43;6.35;;;5.13;;
51326;SDS011;37412;52.836;6.362;2023-09-18T12:53:29;5.88;;;5.20;;
51326;SDS011;37412;52.836;6.362;2023-09-18T12:56:15;6.07;;;4.60;;
51326;SDS011;37412;52.836;6.362;2023-09-18T12:59:01;7.50;;;4.50;;
51326;SDS011;37412;52.836;6.362;2023-09-18T13:01:49;7.95;;;4.85;;
51326;SDS011;37412;52.836;6.362;2023-09-18T13:04:35;6.35;;;4.93;;
51326;SDS011;37412;52.836;6.362;2023-09-18T13:07:22;5.45;;;4.80;;
51326;SDS011;37412;52.836;6.362;2023-09-18T13:10:09;7.25;;;4.95;;
51326;SDS011;37412;52.836;6.362;2023-09-18T13:12:55;6.05;;;4.50;;
51326;SDS011;37412;52.836;6.362;2023-09-18T13:15:41;7.18;;;4.88;;
51326;SDS011;37412;52.836;6.362;2023-09-18T13:18:30;7.13;;;4.50;;
51326;SDS011;37412;52.836;6.362;2023-09-18T13:21:17;7.00;;;4.45;;
51326;SDS011;37412;52.836;6.362;2023-09-18T13:24:05;7.53;;;4.30;;
51326;SDS011;37412;52.836;6.362;2023-09-18T13:26:52;7.25;;;4.57;;
51326;SDS011;37412;52.836;6.362;2023-09-18T13:29:39;5.82;;;4.18;;
51326;SDS011;37412;52.836;6.362;2023-09-18T13:32:25;5.28;;;3.92;;
51326;SDS011;37412;52.836;6.362;2023-09-18T13:35:11;6.80;;;4.17;;
51326;SDS011;37412;52.836;6.362;2023-09-18T13:37:59;5.73;;;3.60;;
51326;SDS011;37412;52.836;6.362;2023-09-18T13:40:46;6.15;;;3.53;;
51326;SDS011;37412;52.836;6.362;2023-09-18T22:05:57;4.32;;;1.20;;
51326;SDS011;37412;52.836;6.362;2023-09-18T22:08:43;5.40;;;1.35;;
51326;SDS011;37412;52.836;6.362;2023-09-18T22:11:29;6.43;;;1.75;;
51326;SDS011;37412;52.836;6.362;2023-09-18T22:14:17;6.88;;;1.40;;
51326;SDS011;37412;52.836;6.362;2023-09-18T22:17:03;6.93;;;1.40;;
51326;SDS011;37412;52.836;6.362;2023-09-18T22:19:49;5.78;;;1.23;;
51326;SDS011;37412;52.836;6.362;2023-09-18T22:22:36;7.78;;;1.75;;
51326;SDS011;37412;52.836;6.362;2023-09-18T22:25:24;5.88;;;1.67;;
51326;SDS011;37412;52.836;6.362;2023-09-18T22:28:09;4.15;;;1.25;;
51326;SDS011;37412;52.836;6.362;2023-09-18T22:30:56;6.00;;;1.15;;
51326;SDS011;37412;52.836;6.362;2023-09-18T22:33:42;4.07;;;1.30;;
51326;SDS011;37412;52.836;6.362;2023-09-18T22:36:28;5.13;;;1.25;;
51326;SDS011;37412;52.836;6.362;2023-09-18T22:55:25;6.00;;;1.55;;
51326;SDS011;37412;52.836;6.362;2023-09-18T22:58:10;5.07;;;1.30;;
